sensor_id;sensor_type;location;lat;lon;timestamp;P1;durP1;ratioP1;P2;durP2;ratioP2
54935;SDS011;40838;50.676;7.838;2023-07-31T00:01:21;6.47;;;2.22;;
54935;SDS011;40838;50.676;7.838;2023-07-31T00:03:49;4.05;;;2.00;;
54935;SDS011;40838;50.676;7.838;2023-07-31T00:06:16;4.88;;;2.20;;
54935;SDS011;40838;50.676;7.838;2023-07-31T00:08:43;4.75;;;2.10;;
54935;SDS011;40838;50.676;7.838;2023-07-31T00:11:10;7.32;;;2.13;;
54935;SDS011;40838;50.676;7.838;2023-07-31T00:13:39;6.55;;;2.30;;
54935;SDS011;40838;50.676;7.838;2023-07-31T00:16:12;2.97;;;1.90;;
54935;SDS011;40838;50.676;7.838;2023-07-31T00:18:39;3.20;;;1.90;;
54935;SDS011;40838;50.676;7.838;2023-07-31T00:21:05;5.43;;;2.78;;
54935;SDS011;40838;50.676;7.838;2023-07-31T00:23:32;8.48;;;2.88;;
54935;SDS011;40838;50.676;7.838;2023-07-31T00:25:59;6.65;;;3.03;;
54935;SDS011;40838;50.676;7.838;2023-07-31T00:28:32;9.30;;;2.80;;
54935;SDS011;40838;50.676;7.838;2023-07-31T00:31:00;8.02;;;2.63;;
54935;SDS011;40838;50.676;7.838;2023-07-31T00:33:29;4.70;;;2.50;;
54935;SDS011;40838;50.676;7.838;2023-07-31T00:36:02;7.47;;;2.55;;
54935;SDS011;40838;50.676;7.838;2023-07-31T00:38:33;5.45;;;2.50;;
54935;SDS011;40838;50.676;7.838;2023-07-31T00:41:00;5.35;;;2.42;;
54935;SDS011;40838;50.676;7.838;2023-07-31T00:43:28;5.05;;;2.28;;
54935;SDS011;40838;50.676;7.838;2023-07-31T00:45:56;6.90;;;2.80;;
54935;SDS011;40838;50.676;7.838;2023-07-31T00:48:45;11.73;;;3.00;;
54935;SDS011;40838;50.676;7.838;2023-07-31T00:51:12;5.32;;;2.20;;
54935;SDS011;40838;50.676;7.838;2023-07-31T00:53:40;5.22;;;2.45;;
54935;SDS011;40838;50.676;7.838;2023-07-31T00:56:07;8.15;;;2.42;;
54935;SDS011;40838;50.676;7.838;2023-07-31T00:58:35;6.57;;;2.33;;
54935;SDS011;40838;50.676;7.838;2023-07-31T01:01:02;5.60;;;2.50;;
54935;SDS011;40838;50.676;7.838;2023-07-31T01:06:09;5.13;;;2.28;;
54935;SDS011;40838;50.676;7.838;2023-07-31T01:08:57;9.80;;;2.40;;
54935;SDS011;40838;50.676;7.838;2023-07-31T01:11:47;8.23;;;2.58;;
54935;SDS011;40838;50.676;7.838;2023-07-31T01:14:18;5.15;;;2.75;;
54935;SDS011;40838;50.676;7.838;2023-07-31T01:16:45;9.32;;;2.35;;
54935;SDS011;40838;50.676;7.838;2023-07-31T01:19:15;3.03;;;2.10;;
54935;SDS011;40838;50.676;7.838;2023-07-31T01:21:53;8.88;;;2.65;;
54935;SDS011;40838;50.676;7.838;2023-07-31T01:24:46;8.57;;;2.70;;
54935;SDS011;40838;50.676;7.838;2023-07-31T01:27:23;8.18;;;2.50;;
54935;SDS011;40838;50.676;7.838;2023-07-31T01:29:53;7.03;;;2.58;;
54935;SDS011;40838;50.676;7.838;2023-07-31T01:32:25;5.13;;;2.20;;
54935;SDS011;40838;50.676;7.838;2023-07-31T01:34:57;3.05;;;2.08;;
54935;SDS011;40838;50.676;7.838;2023-07-31T01:37:27;4.70;;;2.20;;
54935;SDS011;40838;50.676;7.838;2023-07-31T01:39:55;3.35;;;2.47;;
54935;SDS011;40838;50.676;7.838;2023-07-31T01:42:23;2.55;;;1.80;;
54935;SDS011;40838;50.676;7.838;2023-07-31T01:44:51;8.80;;;2.55;;
54935;SDS011;40838;50.676;7.838;2023-07-31T01:47:18;6.32;;;2.50;;
54935;SDS011;40838;50.676;7.838;2023-07-31T01:49:46;7.03;;;2.40;;
54935;SDS011;40838;50.676;7.838;2023-07-31T01:52:13;4.18;;;2.22;;
54935;SDS011;40838;50.676;7.838;2023-07-31T01:54:41;4.47;;;2.50;;
54935;SDS011;40838;50.676;7.838;2023-07-31T01:57:09;9.73;;;2.58;;
54935;SDS011;40838;50.676;7.838;2023-07-31T01:59:38;5.68;;;2.97;;
54935;SDS011;40838;50.676;7.838;2023-07-31T02:02:05;5.38;;;2.50;;
54935;SDS011;40838;50.676;7.838;2023-07-31T02:04:32;4.60;;;2.08;;
54935;SDS011;40838;50.676;7.838;2023-07-31T02:06:59;8.77;;;2.53;;
54935;SDS011;40838;50.676;7.838;2023-07-31T02:09:26;11.05;;;3.78;;
54935;SDS011;40838;50.676;7.838;2023-07-31T02:11:53;6.60;;;2.67;;
54935;SDS011;40838;50.676;7.838;2023-07-31T02:14:22;3.10;;;2.20;;
54935;SDS011;40838;50.676;7.838;2023-07-31T02:16:52;9.48;;;2.60;;
54935;SDS011;40838;50.676;7.838;2023-07-31T02:19:19;4.93;;;2.90;;
54935;SDS011;40838;50.676;7.838;2023-07-31T02:21:48;9.07;;;3.65;;
54935;SDS011;40838;50.676;7.838;2023-07-31T02:24:20;4.57;;;2.60;;
54935;SDS011;40838;50.676;7.838;2023-07-31T02:27:01;4.57;;;2.80;;
54935;SDS011;40838;50.676;7.838;2023-07-31T02:29:29;7.13;;;2.50;;
54935;SDS011;40838;50.676;7.838;2023-07-31T02:31:57;7.05;;;2.58;;
54935;SDS011;40838;50.676;7.838;2023-07-31T02:34:24;11.68;;;3.13;;
54935;SDS011;40838;50.676;7.838;2023-07-31T02:36:52;7.75;;;2.65;;
54935;SDS011;40838;50.676;7.838;2023-07-31T02:39:19;12.93;;;3.00;;
54935;SDS011;40838;50.676;7.838;2023-07-31T02:41:46;4.15;;;2.58;;
54935;SDS011;40838;50.676;7.838;2023-07-31T02:44:13;6.63;;;3.13;;
54935;SDS011;40838;50.676;7.838;2023-07-31T02:46:39;7.22;;;3.70;;
54935;SDS011;40838;50.676;7.838;2023-07-31T02:49:08;4.97;;;2.85;;
54935;SDS011;40838;50.676;7.838;2023-07-31T02:51:35;6.57;;;2.95;;
54935;SDS011;40838;50.676;7.838;2023-07-31T02:54:15;4.50;;;2.53;;
54935;SDS011;40838;50.676;7.838;2023-07-31T02:56:52;7.30;;;2.60;;
54935;SDS011;40838;50.676;7.838;2023-07-31T02:59:20;4.57;;;2.80;;
54935;SDS011;40838;50.676;7.838;2023-07-31T03:01:47;5.25;;;2.80;;
54935;SDS011;40838;50.676;7.838;2023-07-31T03:04:21;5.60;;;2.97;;
54935;SDS011;40838;50.676;7.838;2023-07-31T03:06:48;9.50;;;3.47;;
54935;SDS011;40838;50.676;7.838;2023-07-31T03:09:15;5.70;;;2.90;;
54935;SDS011;40838;50.676;7.838;2023-07-31T03:11:43;7.05;;;2.72;;
54935;SDS011;40838;50.676;7.838;2023-07-31T03:14:10;5.22;;;2.72;;
54935;SDS011;40838;50.676;7.838;2023-07-31T03:16:37;4.85;;;2.55;;
54935;SDS011;40838;50.676;7.838;2023-07-31T03:19:06;7.05;;;2.65;;
54935;SDS011;40838;50.676;7.838;2023-07-31T03:21:35;8.85;;;2.90;;
54935;SDS011;40838;50.676;7.838;2023-07-31T03:24:04;6.22;;;2.90;;
54935;SDS011;40838;50.676;7.838;2023-07-31T03:26:31;6.20;;;2.90;;
54935;SDS011;40838;50.676;7.838;2023-07-31T03:29:06;4.88;;;2.63;;
54935;SDS011;40838;50.676;7.838;2023-07-31T03:31:33;8.48;;;2.28;;
54935;SDS011;40838;50.676;7.838;2023-07-31T03:34:01;12.25;;;4.65;;
54935;SDS011;40838;50.676;7.838;2023-07-31T03:36:35;11.23;;;2.60;;
54935;SDS011;40838;50.676;7.838;2023-07-31T03:39:03;6.40;;;2.83;;
54935;SDS011;40838;50.676;7.838;2023-07-31T03:41:30;6.88;;;2.95;;
54935;SDS011;40838;50.676;7.838;2023-07-31T03:43:56;9.05;;;3.63;;
54935;SDS011;40838;50.676;7.838;2023-07-31T03:46:23;4.75;;;2.60;;
54935;SDS011;40838;50.676;7.838;2023-07-31T03:49:05;6.10;;;3.03;;
54935;SDS011;40838;50.676;7.838;2023-07-31T03:51:35;5.45;;;2.83;;
54935;SDS011;40838;50.676;7.838;2023-07-31T03:54:09;7.78;;;2.78;;
54935;SDS011;40838;50.676;7.838;2023-07-31T03:56:38;7.35;;;3.10;;
54935;SDS011;40838;50.676;7.838;2023-07-31T03:59:05;6.57;;;2.55;;
54935;SDS011;40838;50.676;7.838;2023-07-31T04:01:32;6.95;;;2.40;;
54935;SDS011;40838;50.676;7.838;2023-07-31T04:04:09;6.60;;;2.35;;
54935;SDS011;40838;50.676;7.838;2023-07-31T04:06:37;10.07;;;3.97;;
54935;SDS011;40838;50.676;7.838;2023-07-31T04:09:04;6.82;;;2.75;;
54935;SDS011;40838;50.676;7.838;2023-07-31T04:11:33;4.63;;;2.53;;
54935;SDS011;40838;50.676;7.838;2023-07-31T04:13:59;8.13;;;2.50;;
54935;SDS011;40838;50.676;7.838;2023-07-31T04:16:26;10.88;;;3.47;;
54935;SDS011;40838;50.676;7.838;2023-07-31T04:18:59;6.00;;;2.65;;
54935;SDS011;40838;50.676;7.838;2023-07-31T04:21:27;4.03;;;2.40;;
54935;SDS011;40838;50.676;7.838;2023-07-31T04:23:56;5.07;;;2.30;;
54935;SDS011;40838;50.676;7.838;2023-07-31T04:26:23;6.43;;;2.72;;
54935;SDS011;40838;50.676;7.838;2023-07-31T04:28:58;6.25;;;2.50;;
54935;SDS011;40838;50.676;7.838;2023-07-31T04:31:26;4.97;;;2.22;;
54935;SDS011;40838;50.676;7.838;2023-07-31T04:33:53;7.85;;;3.05;;
54935;SDS011;40838;50.676;7.838;2023-07-31T04:36:20;5.80;;;2.45;;
54935;SDS011;40838;50.676;7.838;2023-07-31T04:38:47;5.95;;;2.92;;
54935;SDS011;40838;50.676;7.838;2023-07-31T04:41:16;4.00;;;2.17;;
54935;SDS011;40838;50.676;7.838;2023-07-31T04:43:42;6.53;;;2.80;;
54935;SDS011;40838;50.676;7.838;2023-07-31T04:46:11;6.50;;;2.50;;
54935;SDS011;40838;50.676;7.838;2023-07-31T04:48:47;4.45;;;3.13;;
54935;SDS011;40838;50.676;7.838;2023-07-31T04:51:15;6.43;;;2.63;;
54935;SDS011;40838;50.676;7.838;2023-07-31T04:53:48;6.93;;;3.10;;
54935;SDS011;40838;50.676;7.838;2023-07-31T04:56:19;5.30;;;2.25;;
54935;SDS011;40838;50.676;7.838;2023-07-31T04:58:46;5.75;;;2.80;;
54935;SDS011;40838;50.676;7.838;2023-07-31T05:01:13;6.60;;;2.45;;
54935;SDS011;40838;50.676;7.838;2023-07-31T05:03:41;8.40;;;2.83;;
54935;SDS011;40838;50.676;7.838;2023-07-31T05:06:08;9.50;;;3.10;;
54935;SDS011;40838;50.676;7.838;2023-07-31T05:08:37;5.65;;;2.58;;
54935;SDS011;40838;50.676;7.838;2023-07-31T05:11:07;4.38;;;2.65;;
54935;SDS011;40838;50.676;7.838;2023-07-31T05:13:36;4.90;;;2.80;;
54935;SDS011;40838;50.676;7.838;2023-07-31T05:16:03;6.68;;;2.70;;
54935;SDS011;40838;50.676;7.838;2023-07-31T05:18:32;5.63;;;2.75;;
54935;SDS011;40838;50.676;7.838;2023-07-31T05:21:01;5.82;;;2.55;;
54935;SDS011;40838;50.676;7.838;2023-07-31T05:23:27;6.65;;;2.63;;
54935;SDS011;40838;50.676;7.838;2023-07-31T05:26:02;6.47;;;2.60;;
54935;SDS011;40838;50.676;7.838;2023-07-31T05:28:40;4.20;;;2.65;;
54935;SDS011;40838;50.676;7.838;2023-07-31T05:31:09;13.15;;;3.40;;
54935;SDS011;40838;50.676;7.838;2023-07-31T05:33:36;5.78;;;2.75;;
54935;SDS011;40838;50.676;7.838;2023-07-31T05:36:03;4.15;;;2.40;;
54935;SDS011;40838;50.676;7.838;2023-07-31T05:38:30;5.35;;;2.45;;
54935;SDS011;40838;50.676;7.838;2023-07-31T05:40:57;7.72;;;2.75;;
54935;SDS011;40838;50.676;7.838;2023-07-31T05:43:24;5.10;;;2.40;;
54935;SDS011;40838;50.676;7.838;2023-07-31T05:45:52;5.10;;;2.53;;
54935;SDS011;40838;50.676;7.838;2023-07-31T05:48:19;4.15;;;2.03;;
54935;SDS011;40838;50.676;7.838;2023-07-31T05:50:46;5.60;;;2.60;;
54935;SDS011;40838;50.676;7.838;2023-07-31T05:53:12;4.40;;;2.53;;
54935;SDS011;40838;50.676;7.838;2023-07-31T05:55:39;8.15;;;2.42;;
54935;SDS011;40838;50.676;7.838;2023-07-31T05:58:06;7.75;;;3.28;;
54935;SDS011;40838;50.676;7.838;2023-07-31T06:00:33;4.97;;;2.35;;
54935;SDS011;40838;50.676;7.838;2023-07-31T06:03:03;5.65;;;2.90;;
54935;SDS011;40838;50.676;7.838;2023-07-31T06:05:30;4.35;;;2.42;;
54935;SDS011;40838;50.676;7.838;2023-07-31T06:07:57;4.90;;;2.55;;
54935;SDS011;40838;50.676;7.838;2023-07-31T06:10:27;4.45;;;2.13;;
54935;SDS011;40838;50.676;7.838;2023-07-31T06:12:53;4.68;;;2.38;;
54935;SDS011;40838;50.676;7.838;2023-07-31T06:15:22;6.70;;;2.47;;
54935;SDS011;40838;50.676;7.838;2023-07-31T06:17:49;6.00;;;2.80;;
54935;SDS011;40838;50.676;7.838;2023-07-31T06:20:18;6.38;;;2.70;;
54935;SDS011;40838;50.676;7.838;2023-07-31T06:22:45;6.47;;;3.38;;
54935;SDS011;40838;50.676;7.838;2023-07-31T06:25:12;8.27;;;3.05;;
54935;SDS011;40838;50.676;7.838;2023-07-31T06:27:38;5.45;;;2.55;;
54935;SDS011;40838;50.676;7.838;2023-07-31T06:30:06;9.27;;;3.00;;
54935;SDS011;40838;50.676;7.838;2023-07-31T06:32:33;9.27;;;3.22;;
54935;SDS011;40838;50.676;7.838;2023-07-31T06:35:01;7.47;;;2.90;;
54935;SDS011;40838;50.676;7.838;2023-07-31T06:37:29;4.68;;;2.60;;
54935;SDS011;40838;50.676;7.838;2023-07-31T06:40:02;5.40;;;2.67;;
54935;SDS011;40838;50.676;7.838;2023-07-31T06:42:30;8.70;;;2.70;;
54935;SDS011;40838;50.676;7.838;2023-07-31T06:45:03;8.73;;;2.90;;
54935;SDS011;40838;50.676;7.838;2023-07-31T06:47:33;7.57;;;2.58;;
54935;SDS011;40838;50.676;7.838;2023-07-31T06:50:02;4.15;;;2.88;;
54935;SDS011;40838;50.676;7.838;2023-07-31T06:52:32;5.20;;;2.28;;
54935;SDS011;40838;50.676;7.838;2023-07-31T06:55:03;6.60;;;2.72;;
54935;SDS011;40838;50.676;7.838;2023-07-31T06:57:42;4.28;;;2.65;;
54935;SDS011;40838;50.676;7.838;2023-07-31T07:00:11;5.25;;;3.13;;
54935;SDS011;40838;50.676;7.838;2023-07-31T07:02:38;4.82;;;2.97;;
54935;SDS011;40838;50.676;7.838;2023-07-31T07:05:13;12.20;;;3.30;;
54935;SDS011;40838;50.676;7.838;2023-07-31T07:07:41;7.25;;;3.05;;
54935;SDS011;40838;50.676;7.838;2023-07-31T07:10:09;7.25;;;2.80;;
54935;SDS011;40838;50.676;7.838;2023-07-31T07:12:37;6.05;;;3.22;;
54935;SDS011;40838;50.676;7.838;2023-07-31T07:15:05;6.05;;;2.95;;
54935;SDS011;40838;50.676;7.838;2023-07-31T07:17:32;7.88;;;3.13;;
54935;SDS011;40838;50.676;7.838;2023-07-31T07:19:59;6.72;;;2.92;;
54935;SDS011;40838;50.676;7.838;2023-07-31T07:22:26;10.07;;;3.30;;
54935;SDS011;40838;50.676;7.838;2023-07-31T07:24:57;6.05;;;3.00;;
54935;SDS011;40838;50.676;7.838;2023-07-31T07:27:24;5.63;;;3.38;;
54935;SDS011;40838;50.676;7.838;2023-07-31T07:29:51;8.10;;;3.40;;
54935;SDS011;40838;50.676;7.838;2023-07-31T07:32:20;11.38;;;3.83;;
54935;SDS011;40838;50.676;7.838;2023-07-31T07:34:47;5.22;;;3.15;;
54935;SDS011;40838;50.676;7.838;2023-07-31T07:37:14;11.52;;;3.55;;
54935;SDS011;40838;50.676;7.838;2023-07-31T07:39:43;8.27;;;3.42;;
54935;SDS011;40838;50.676;7.838;2023-07-31T07:42:12;6.72;;;3.00;;
54935;SDS011;40838;50.676;7.838;2023-07-31T07:44:41;6.55;;;3.20;;
54935;SDS011;40838;50.676;7.838;2023-07-31T07:47:08;7.72;;;3.45;;
54935;SDS011;40838;50.676;7.838;2023-07-31T07:49:35;8.73;;;3.45;;
54935;SDS011;40838;50.676;7.838;2023-07-31T07:52:02;7.15;;;3.20;;
54935;SDS011;40838;50.676;7.838;2023-07-31T07:54:29;7.55;;;2.95;;
54935;SDS011;40838;50.676;7.838;2023-07-31T07:56:56;6.47;;;3.03;;
54935;SDS011;40838;50.676;7.838;2023-07-31T07:59:24;8.75;;;3.72;;
54935;SDS011;40838;50.676;7.838;2023-07-31T08:01:57;9.90;;;3.20;;
54935;SDS011;40838;50.676;7.838;2023-07-31T08:04:24;10.32;;;2.95;;
54935;SDS011;40838;50.676;7.838;2023-07-31T08:06:52;6.25;;;2.90;;
54935;SDS011;40838;50.676;7.838;2023-07-31T08:09:26;8.30;;;3.15;;
54935;SDS011;40838;50.676;7.838;2023-07-31T08:11:56;10.68;;;3.20;;
54935;SDS011;40838;50.676;7.838;2023-07-31T08:14:28;7.07;;;2.97;;
54935;SDS011;40838;50.676;7.838;2023-07-31T08:17:26;8.52;;;2.95;;
54935;SDS011;40838;50.676;7.838;2023-07-31T08:19:43;7.78;;;3.40;;
54935;SDS011;40838;50.676;7.838;2023-07-31T08:22:11;5.82;;;3.47;;
54935;SDS011;40838;50.676;7.838;2023-07-31T08:24:38;6.95;;;2.80;;
54935;SDS011;40838;50.676;7.838;2023-07-31T08:27:07;9.38;;;3.30;;
54935;SDS011;40838;50.676;7.838;2023-07-31T08:29:35;8.68;;;4.00;;
54935;SDS011;40838;50.676;7.838;2023-07-31T08:32:06;9.13;;;3.33;;
54935;SDS011;40838;50.676;7.838;2023-07-31T08:34:33;9.35;;;3.50;;
54935;SDS011;40838;50.676;7.838;2023-07-31T08:37:00;10.68;;;3.80;;
54935;SDS011;40838;50.676;7.838;2023-07-31T08:39:26;8.30;;;3.47;;
54935;SDS011;40838;50.676;7.838;2023-07-31T08:42:07;8.48;;;3.30;;
54935;SDS011;40838;50.676;7.838;2023-07-31T08:44:39;8.70;;;4.30;;
54935;SDS011;40838;50.676;7.838;2023-07-31T08:47:13;8.43;;;3.90;;
54935;SDS011;40838;50.676;7.838;2023-07-31T08:49:46;9.98;;;3.65;;
54935;SDS011;40838;50.676;7.838;2023-07-31T08:52:14;12.13;;;3.75;;
54935;SDS011;40838;50.676;7.838;2023-07-31T08:54:43;10.40;;;3.97;;
54935;SDS011;40838;50.676;7.838;2023-07-31T08:57:11;11.35;;;4.68;;
54935;SDS011;40838;50.676;7.838;2023-07-31T08:59:43;8.70;;;4.07;;
54935;SDS011;40838;50.676;7.838;2023-07-31T09:02:13;10.02;;;3.60;;
54935;SDS011;40838;50.676;7.838;2023-07-31T09:04:42;9.40;;;3.65;;
54935;SDS011;40838;50.676;7.838;2023-07-31T09:07:11;10.45;;;3.72;;
54935;SDS011;40838;50.676;7.838;2023-07-31T09:09:38;7.65;;;3.45;;
54935;SDS011;40838;50.676;7.838;2023-07-31T09:12:07;10.88;;;3.95;;
54935;SDS011;40838;50.676;7.838;2023-07-31T09:14:34;10.80;;;4.38;;
54935;SDS011;40838;50.676;7.838;2023-07-31T09:17:03;8.90;;;4.07;;
54935;SDS011;40838;50.676;7.838;2023-07-31T09:19:32;15.57;;;4.60;;
54935;SDS011;40838;50.676;7.838;2023-07-31T09:22:02;11.20;;;4.13;;
54935;SDS011;40838;50.676;7.838;2023-07-31T09:27:03;11.05;;;4.47;;
54935;SDS011;40838;50.676;7.838;2023-07-31T09:29:34;8.02;;;3.63;;
54935;SDS011;40838;50.676;7.838;2023-07-31T09:32:00;9.02;;;4.25;;
54935;SDS011;40838;50.676;7.838;2023-07-31T09:34:30;8.95;;;4.05;;
54935;SDS011;40838;50.676;7.838;2023-07-31T09:37:03;7.78;;;4.00;;
54935;SDS011;40838;50.676;7.838;2023-07-31T09:39:31;8.98;;;3.90;;
54935;SDS011;40838;50.676;7.838;2023-07-31T09:44:37;12.15;;;4.38;;
54935;SDS011;40838;50.676;7.838;2023-07-31T09:47:06;9.88;;;4.43;;
54935;SDS011;40838;50.676;7.838;2023-07-31T09:49:34;11.98;;;4.90;;
54935;SDS011;40838;50.676;7.838;2023-07-31T09:52:03;14.38;;;4.38;;
54935;SDS011;40838;50.676;7.838;2023-07-31T09:54:40;9.68;;;3.88;;
54935;SDS011;40838;50.676;7.838;2023-07-31T09:57:07;11.73;;;4.40;;
54935;SDS011;40838;50.676;7.838;2023-07-31T09:59:35;13.43;;;4.00;;
54935;SDS011;40838;50.676;7.838;2023-07-31T10:02:07;9.75;;;3.80;;
54935;SDS011;40838;50.676;7.838;2023-07-31T10:04:44;7.97;;;3.72;;
54935;SDS011;40838;50.676;7.838;2023-07-31T10:07:15;10.02;;;3.63;;
54935;SDS011;40838;50.676;7.838;2023-07-31T10:10:04;14.90;;;3.60;;
54935;SDS011;40838;50.676;7.838;2023-07-31T10:12:33;6.72;;;3.55;;
54935;SDS011;40838;50.676;7.838;2023-07-31T10:15:00;8.82;;;4.40;;
54935;SDS011;40838;50.676;7.838;2023-07-31T10:17:29;8.02;;;3.28;;
54935;SDS011;40838;50.676;7.838;2023-07-31T10:19:58;9.65;;;3.72;;
54935;SDS011;40838;50.676;7.838;2023-07-31T10:22:29;11.25;;;3.65;;
54935;SDS011;40838;50.676;7.838;2023-07-31T10:25:01;9.45;;;3.75;;
54935;SDS011;40838;50.676;7.838;2023-07-31T10:27:28;10.35;;;3.55;;
54935;SDS011;40838;50.676;7.838;2023-07-31T10:29:55;10.18;;;3.83;;
54935;SDS011;40838;50.676;7.838;2023-07-31T10:32:25;6.35;;;3.47;;
54935;SDS011;40838;50.676;7.838;2023-07-31T10:34:53;9.15;;;3.92;;
54935;SDS011;40838;50.676;7.838;2023-07-31T10:37:37;9.40;;;3.60;;
54935;SDS011;40838;50.676;7.838;2023-07-31T10:40:09;10.18;;;4.30;;
54935;SDS011;40838;50.676;7.838;2023-07-31T10:42:38;7.38;;;3.60;;
54935;SDS011;40838;50.676;7.838;2023-07-31T10:47:40;8.63;;;2.95;;
54935;SDS011;40838;50.676;7.838;2023-07-31T10:50:13;8.23;;;3.67;;
54935;SDS011;40838;50.676;7.838;2023-07-31T10:52:47;7.90;;;3.58;;
54935;SDS011;40838;50.676;7.838;2023-07-31T10:58:18;5.15;;;2.95;;
54935;SDS011;40838;50.676;7.838;2023-07-31T11:00:45;7.50;;;3.25;;
54935;SDS011;40838;50.676;7.838;2023-07-31T11:06:10;8.05;;;2.50;;
54935;SDS011;40838;50.676;7.838;2023-07-31T11:08:48;6.38;;;3.10;;
54935;SDS011;40838;50.676;7.838;2023-07-31T11:11:19;7.80;;;3.13;;
54935;SDS011;40838;50.676;7.838;2023-07-31T11:13:55;14.50;;;3.60;;
54935;SDS011;40838;50.676;7.838;2023-07-31T11:16:23;10.40;;;3.20;;
54935;SDS011;40838;50.676;7.838;2023-07-31T11:18:51;6.47;;;3.03;;
54935;SDS011;40838;50.676;7.838;2023-07-31T11:21:21;6.10;;;2.92;;
54935;SDS011;40838;50.676;7.838;2023-07-31T11:23:51;7.90;;;3.30;;
54935;SDS011;40838;50.676;7.838;2023-07-31T11:26:24;9.90;;;3.63;;
54935;SDS011;40838;50.676;7.838;2023-07-31T11:28:56;9.00;;;2.70;;
54935;SDS011;40838;50.676;7.838;2023-07-31T11:31:30;9.73;;;2.80;;
54935;SDS011;40838;50.676;7.838;2023-07-31T11:34:04;6.07;;;2.90;;
54935;SDS011;40838;50.676;7.838;2023-07-31T11:36:32;4.93;;;2.88;;
54935;SDS011;40838;50.676;7.838;2023-07-31T11:39:05;4.78;;;2.60;;
54935;SDS011;40838;50.676;7.838;2023-07-31T11:41:32;5.90;;;2.67;;
54935;SDS011;40838;50.676;7.838;2023-07-31T11:43:59;5.43;;;2.78;;
54935;SDS011;40838;50.676;7.838;2023-07-31T11:46:27;9.25;;;2.63;;
54935;SDS011;40838;50.676;7.838;2023-07-31T11:48:59;4.63;;;2.45;;
54935;SDS011;40838;50.676;7.838;2023-07-31T11:51:26;5.28;;;2.47;;
54935;SDS011;40838;50.676;7.838;2023-07-31T11:53:56;9.57;;;2.20;;
54935;SDS011;40838;50.676;7.838;2023-07-31T11:56:27;3.35;;;2.45;;
54935;SDS011;40838;50.676;7.838;2023-07-31T11:59:04;3.33;;;2.30;;
54935;SDS011;40838;50.676;7.838;2023-07-31T12:01:33;5.45;;;2.25;;
54935;SDS011;40838;50.676;7.838;2023-07-31T12:04:00;8.13;;;2.63;;
54935;SDS011;40838;50.676;7.838;2023-07-31T12:06:33;6.88;;;2.20;;
54935;SDS011;40838;50.676;7.838;2023-07-31T12:09:15;5.20;;;2.00;;
54935;SDS011;40838;50.676;7.838;2023-07-31T12:11:51;3.85;;;2.05;;
54935;SDS011;40838;50.676;7.838;2023-07-31T12:14:20;4.97;;;2.00;;
54935;SDS011;40838;50.676;7.838;2023-07-31T12:16:48;6.40;;;2.00;;
54935;SDS011;40838;50.676;7.838;2023-07-31T12:19:26;2.92;;;2.35;;
54935;SDS011;40838;50.676;7.838;2023-07-31T12:22:10;6.30;;;2.05;;
54935;SDS011;40838;50.676;7.838;2023-07-31T12:24:38;3.95;;;1.92;;
54935;SDS011;40838;50.676;7.838;2023-07-31T12:27:11;5.20;;;1.90;;
54935;SDS011;40838;50.676;7.838;2023-07-31T12:29:49;5.55;;;1.65;;
54935;SDS011;40838;50.676;7.838;2023-07-31T12:32:19;3.38;;;1.60;;
54935;SDS011;40838;50.676;7.838;2023-07-31T12:34:49;6.55;;;1.90;;
54935;SDS011;40838;50.676;7.838;2023-07-31T12:37:16;6.15;;;1.85;;
54935;SDS011;40838;50.676;7.838;2023-07-31T12:39:42;3.40;;;1.63;;
54935;SDS011;40838;50.676;7.838;2023-07-31T12:42:09;3.58;;;1.55;;
54935;SDS011;40838;50.676;7.838;2023-07-31T12:44:38;5.43;;;1.70;;
54935;SDS011;40838;50.676;7.838;2023-07-31T12:47:07;3.40;;;1.90;;
54935;SDS011;40838;50.676;7.838;2023-07-31T12:50:00;2.85;;;1.70;;
54935;SDS011;40838;50.676;7.838;2023-07-31T12:52:27;4.13;;;1.63;;
54935;SDS011;40838;50.676;7.838;2023-07-31T12:54:54;3.03;;;1.40;;
54935;SDS011;40838;50.676;7.838;2023-07-31T12:57:22;5.53;;;2.38;;
54935;SDS011;40838;50.676;7.838;2023-07-31T12:59:49;5.07;;;1.90;;
54935;SDS011;40838;50.676;7.838;2023-07-31T13:02:16;3.25;;;1.65;;
54935;SDS011;40838;50.676;7.838;2023-07-31T13:04:44;4.70;;;1.90;;
54935;SDS011;40838;50.676;7.838;2023-07-31T13:07:11;4.32;;;1.83;;
54935;SDS011;40838;50.676;7.838;2023-07-31T13:09:38;5.13;;;1.73;;
54935;SDS011;40838;50.676;7.838;2023-07-31T13:12:19;3.45;;;1.60;;
54935;SDS011;40838;50.676;7.838;2023-07-31T13:14:47;4.40;;;1.95;;
54935;SDS011;40838;50.676;7.838;2023-07-31T13:17:14;5.88;;;1.80;;
54935;SDS011;40838;50.676;7.838;2023-07-31T13:19:48;7.35;;;2.40;;
54935;SDS011;40838;50.676;7.838;2023-07-31T13:22:16;9.25;;;1.90;;
54935;SDS011;40838;50.676;7.838;2023-07-31T13:24:53;5.32;;;2.30;;
54935;SDS011;40838;50.676;7.838;2023-07-31T13:27:20;4.78;;;2.35;;
54935;SDS011;40838;50.676;7.838;2023-07-31T13:29:51;4.93;;;2.15;;
54935;SDS011;40838;50.676;7.838;2023-07-31T13:32:20;4.13;;;2.10;;
54935;SDS011;40838;50.676;7.838;2023-07-31T13:34:47;8.20;;;2.55;;
54935;SDS011;40838;50.676;7.838;2023-07-31T13:37:19;6.00;;;2.70;;
54935;SDS011;40838;50.676;7.838;2023-07-31T13:39:46;4.88;;;2.30;;
54935;SDS011;40838;50.676;7.838;2023-07-31T13:42:13;6.63;;;2.60;;
54935;SDS011;40838;50.676;7.838;2023-07-31T13:44:42;5.57;;;2.70;;
54935;SDS011;40838;50.676;7.838;2023-07-31T13:47:10;4.50;;;2.45;;
54935;SDS011;40838;50.676;7.838;2023-07-31T13:49:43;4.38;;;2.45;;
54935;SDS011;40838;50.676;7.838;2023-07-31T13:52:10;5.32;;;2.33;;
54935;SDS011;40838;50.676;7.838;2023-07-31T13:54:38;3.35;;;2.38;;
54935;SDS011;40838;50.676;7.838;2023-07-31T13:57:15;3.70;;;2.15;;
54935;SDS011;40838;50.676;7.838;2023-07-31T13:59:42;2.67;;;2.00;;
54935;SDS011;40838;50.676;7.838;2023-07-31T14:02:10;5.50;;;2.45;;
54935;SDS011;40838;50.676;7.838;2023-07-31T14:04:43;5.35;;;2.10;;
54935;SDS011;40838;50.676;7.838;2023-07-31T14:07:14;3.58;;;2.08;;
54935;SDS011;40838;50.676;7.838;2023-07-31T14:09:42;2.03;;;1.75;;
54935;SDS011;40838;50.676;7.838;2023-07-31T14:12:10;3.78;;;1.60;;
54935;SDS011;40838;50.676;7.838;2023-07-31T14:14:37;4.18;;;1.80;;
54935;SDS011;40838;50.676;7.838;2023-07-31T14:17:04;6.07;;;1.63;;
54935;SDS011;40838;50.676;7.838;2023-07-31T14:22:15;4.70;;;2.33;;
54935;SDS011;40838;50.676;7.838;2023-07-31T14:24:53;2.67;;;1.77;;
54935;SDS011;40838;50.676;7.838;2023-07-31T14:27:20;3.72;;;1.52;;
54935;SDS011;40838;50.676;7.838;2023-07-31T14:29:47;5.07;;;1.60;;
54935;SDS011;40838;50.676;7.838;2023-07-31T14:32:14;5.15;;;2.00;;
54935;SDS011;40838;50.676;7.838;2023-07-31T14:34:50;2.30;;;1.65;;
54935;SDS011;40838;50.676;7.838;2023-07-31T14:37:16;2.00;;;1.70;;
54935;SDS011;40838;50.676;7.838;2023-07-31T14:39:43;2.42;;;1.40;;
54935;SDS011;40838;50.676;7.838;2023-07-31T14:42:10;6.10;;;1.83;;
54935;SDS011;40838;50.676;7.838;2023-07-31T14:44:38;7.03;;;1.60;;
54935;SDS011;40838;50.676;7.838;2023-07-31T14:47:05;2.17;;;1.67;;
54935;SDS011;40838;50.676;7.838;2023-07-31T14:49:47;3.10;;;1.95;;
54935;SDS011;40838;50.676;7.838;2023-07-31T14:52:16;2.97;;;1.40;;
54935;SDS011;40838;50.676;7.838;2023-07-31T14:54:44;3.58;;;1.70;;
54935;SDS011;40838;50.676;7.838;2023-07-31T14:57:11;2.55;;;1.70;;
54935;SDS011;40838;50.676;7.838;2023-07-31T14:59:38;4.22;;;2.05;;
54935;SDS011;40838;50.676;7.838;2023-07-31T15:02:05;2.72;;;1.58;;
54935;SDS011;40838;50.676;7.838;2023-07-31T15:04:33;2.47;;;1.60;;
54935;SDS011;40838;50.676;7.838;2023-07-31T15:06:59;2.13;;;1.40;;
54935;SDS011;40838;50.676;7.838;2023-07-31T15:09:28;2.33;;;1.50;;
54935;SDS011;40838;50.676;7.838;2023-07-31T15:11:55;2.42;;;1.40;;
54935;SDS011;40838;50.676;7.838;2023-07-31T15:14:29;3.30;;;1.40;;
54935;SDS011;40838;50.676;7.838;2023-07-31T15:17:06;2.90;;;1.63;;
54935;SDS011;40838;50.676;7.838;2023-07-31T15:19:32;3.65;;;1.73;;